Time;durP1;ratioP1;P1;durP2;ratioP2;P2;SDS_P1;SDS_P2;PMS_P1;PMS_P2;Temp;Humidity;BMP_temperature;BMP_pressure;BME280_temperature;BME280_humidity;BME280_pressure;Samples;Min_cycle;Max_cycle;Signal;HPM_P1;HPM_P2
2022/11/19 00:00:40;;;;;;;3.53;2.03;;;1.40;99.90;;;;;;5128400;27;20066;-79
2022/11/19 00:03:06;;;;;;;4.38;2.63;;;1.20;99.90;;;;;;5110105;27;20102;-80
2022/11/19 00:05:37;;;;;;;3.70;2.25;;;1.20;99.90;;;;;;5111951;27;20138;-79
2022/11/19 00:08:02;;;;;;;4.75;2.70;;;1.10;99.90;;;;;;5110695;27;20111;-79
2022/11/19 00:10:28;;;;;;;5.85;2.35;;;1.10;99.90;;;;;;5128330;27;20464;-79
2022/11/19 00:12:54;;;;;;;4.90;2.72;;;1.10;99.90;;;;;;5128624;27;20045;-80
2022/11/19 00:15:20;;;;;;;4.40;2.55;;;1.00;99.90;;;;;;5098269;27;20038;-79
2022/11/19 00:17:46;;;;;;;5.25;2.97;;;1.00;99.90;;;;;;5098656;27;20081;-79
2022/11/19 00:20:13;;;;;;;4.75;2.75;;;1.00;99.90;;;;;;5131482;27;20107;-80
2022/11/19 00:22:42;;;;;;;4.22;2.78;;;0.90;99.90;;;;;;5115679;27;20038;-79
2022/11/19 00:25:07;;;;;;;5.22;3.03;;;0.90;99.90;;;;;;5131196;27;20085;-79
2022/11/19 00:27:33;;;;;;;4.22;2.85;;;0.90;99.90;;;;;;5115388;27;20054;-79
2022/11/19 00:29:59;;;;;;;6.97;3.05;;;0.90;99.90;;;;;;5132301;27;20042;-80
2022/11/19 00:32:25;;;;;;;3.95;2.70;;;0.80;99.90;;;;;;5132355;27;20465;-79
2022/11/19 00:34:50;;;;;;;3.90;2.78;;;0.80;99.90;;;;;;5116006;27;20443;-79
2022/11/19 00:37:16;;;;;;;4.05;2.70;;;0.80;99.90;;;;;;5097519;27;20070;-79
2022/11/19 00:39:42;;;;;;;5.60;3.78;;;0.80;99.90;;;;;;5098140;27;20474;-79
2022/11/19 00:42:07;;;;;;;5.93;2.75;;;0.70;99.90;;;;;;5130960;27;20034;-79
2022/11/19 00:44:33;;;;;;;5.13;3.15;;;0.70;99.90;;;;;;5115291;27;20043;-80
2022/11/19 00:46:58;;;;;;;4.93;2.75;;;0.70;99.90;;;;;;5131093;27;20086;-80
2022/11/19 00:49:24;;;;;;;5.25;3.22;;;1.20;99.90;;;;;;5114557;27;20050;-80
2022/11/19 00:51:50;;;;;;;4.38;3.10;;;1.40;99.90;;;;;;5132340;27;20039;-80
2022/11/19 00:54:15;;;;;;;4.60;3.00;;;0.60;99.90;;;;;;5130794;27;20046;-79
2022/11/19 00:56:41;;;;;;;4.30;2.85;;;0.50;99.90;;;;;;5097833;27;20165;-80
2022/11/19 00:59:07;;;;;;;5.18;3.20;;;0.50;99.90;;;;;;5113433;27;20034;-80
2022/11/19 01:01:32;;;;;;;6.63;3.53;;;0.50;99.90;;;;;;5114981;27;20039;-79
2022/11/19 01:03:58;;;;;;;5.53;3.22;;;0.50;99.90;;;;;;5114249;27;20082;-80
2022/11/19 01:06:25;;;;;;;5.07;3.58;;;0.50;99.90;;;;;;5131521;27;20537;-80
2022/11/19 01:08:52;;;;;;;5.25;3.50;;;0.40;99.90;;;;;;5114386;27;20043;-80
2022/11/19 01:11:21;;;;;;;5.22;3.17;;;0.40;99.90;;;;;;5130796;27;20123;-80
2022/11/19 01:13:47;;;;;;;5.10;3.22;;;0.40;99.90;;;;;;5132068;27;20057;-80
2022/11/19 01:16:35;;;;;;;4.97;3.22;;;0.40;99.90;;;;;;5096535;27;20448;-80
2022/11/19 01:19:01;;;;;;;5.70;3.72;;;0.40;99.90;;;;;;5131510;27;20052;-80
2022/11/19 01:21:29;;;;;;;5.80;3.53;;;0.40;99.90;;;;;;5113597;27;20058;-80
2022/11/19 01:23:56;;;;;;;5.18;3.13;;;0.40;99.90;;;;;;5113157;27;20130;-80
2022/11/19 01:26:21;;;;;;;5.38;3.33;;;0.40;99.90;;;;;;5097182;27;20318;-81
2022/11/19 01:28:47;;;;;;;5.93;3.63;;;0.40;99.90;;;;;;5130062;27;20362;-80
2022/11/19 01:31:16;;;;;;;4.95;3.15;;;0.40;99.90;;;;;;5114562;27;20394;-80
2022/11/19 01:33:42;;;;;;;6.30;3.70;;;0.40;99.90;;;;;;5129911;27;20050;-80
2022/11/19 01:36:13;;;;;;;5.47;3.72;;;0.40;99.90;;;;;;5131430;27;20098;-80
2022/11/19 01:38:39;;;;;;;4.88;3.40;;;0.40;99.90;;;;;;5130188;27;20118;-80
2022/11/19 01:41:05;;;;;;;5.07;3.20;;;0.40;99.90;;;;;;5130465;27;20178;-80
2022/11/19 01:43:52;;;;;;;6.40;3.58;;;0.40;99.90;;;;;;5114255;27;20038;-80
2022/11/19 01:46:23;;;;;;;6.13;3.65;;;0.40;99.90;;;;;;5112410;27;20550;-80
2022/11/19 01:49:19;;;;;;;6.03;4.03;;;0.50;99.90;;;;;;5130632;27;20092;-80
2022/11/19 01:51:53;;;;;;;4.43;3.47;;;0.30;99.90;;;;;;5109040;27;20444;-79
2022/11/19 01:54:29;;;;;;;5.45;3.65;;;0.30;99.90;;;;;;5112583;27;20046;-79
2022/11/19 01:57:00;;;;;;;5.85;3.40;;;0.30;99.90;;;;;;5130891;27;20077;-79
2022/11/19 01:59:28;;;;;;;8.27;3.78;;;0.20;99.90;;;;;;5111921;27;20081;-79
2022/11/19 02:01:55;;;;;;;5.95;3.67;;;0.20;99.90;;;;;;5130262;27;20042;-79
2022/11/19 02:04:22;;;;;;;4.70;3.42;;;1.20;99.90;;;;;;5112724;27;20046;-80
2022/11/19 02:06:49;;;;;;;5.28;4.10;;;0.10;99.90;;;;;;5129397;27;20046;-79
2022/11/19 02:09:14;;;;;;;7.43;4.38;;;0.10;99.90;;;;;;5130703;27;20370;-80
2022/11/19 02:11:52;;;;;;;6.35;4.07;;;0.10;99.90;;;;;;5129602;27;20046;-80
2022/11/19 02:14:47;;;;;;;5.63;3.75;;;0.00;99.90;;;;;;5113115;27;20046;-79
2022/11/19 02:17:48;;;;;;;6.28;4.28;;;-0.70;99.90;;;;;;5093068;27;20146;-80
2022/11/19 02:20:50;;;;;;;6.25;3.67;;;0.00;99.90;;;;;;5026547;28;20083;-80
2022/11/19 02:23:25;;;;;;;8.00;4.25;;;-0.10;99.90;;;;;;5112904;27;20046;-80
2022/11/19 02:25:56;;;;;;;7.07;4.40;;;-0.10;99.90;;;;;;5112210;27;20038;-79
2022/11/19 02:29:01;;;;;;;6.60;4.18;;;-0.10;99.90;;;;;;5111803;27;20564;-79
2022/11/19 02:31:38;;;;;;;5.70;3.83;;;-0.20;99.90;;;;;;5065718;27;20137;-79
2022/11/19 02:34:15;;;;;;;8.80;4.53;;;-0.20;99.90;;;;;;5129281;27;20046;-79
2022/11/19 02:36:51;;;;;;;8.05;4.15;;;-0.30;99.90;;;;;;5111316;27;20039;-80
2022/11/19 02:39:32;;;;;;;10.20;4.72;;;-0.30;99.90;;;;;;5130022;27;20082;-79
2022/11/19 02:42:27;;;;;;;6.22;3.88;;;-0.40;99.90;;;;;;5128619;27;20047;-80
2022/11/19 02:45:02;;;;;;;6.78;4.30;;;-0.40;99.90;;;;;;5039714;27;20045;-80
2022/11/19 02:47:36;;;;;;;7.45;4.20;;;-0.40;99.90;;;;;;5129747;27;20405;-80
2022/11/19 02:50:26;;;;;;;8.95;3.75;;;-0.50;99.90;;;;;;5128604;27;20038;-80
2022/11/19 02:52:53;;;;;;;5.88;3.97;;;-0.50;99.90;;;;;;5111869;27;20401;-80
2022/11/19 02:55:20;;;;;;;8.55;4.75;;;-0.50;99.90;;;;;;5128347;27;20042;-79
2022/11/19 02:58:09;;;;;;;7.18;4.32;;;-0.60;99.90;;;;;;5111988;27;20494;-80
2022/11/19 03:06:22;;;;;;;8.18;4.45;;;-0.60;99.90;;;;;;5129259;27;20089;-80
2022/11/19 03:08:47;;;;;;;5.85;3.60;;;-0.60;99.90;;;;;;5129401;27;20138;-80
2022/11/19 03:11:20;;;;;;;7.20;4.22;;;-0.70;99.90;;;;;;5094822;27;20521;-80
2022/11/19 03:17:08;;;;;;;6.65;4.22;;;-0.70;99.90;;;;;;5127706;27;20046;-80
2022/11/19 03:19:39;;;;;;;6.13;4.05;;;-0.70;99.90;;;;;;5128624;27;20575;-80
2022/11/19 03:22:20;;;;;;;6.93;4.05;;;-0.70;99.90;;;;;;5129476;27;20065;-80
2022/11/19 03:25:00;;;;;;;5.97;4.07;;;-0.70;99.90;;;;;;5127696;27;20083;-80
2022/11/19 03:27:33;;;;;;;8.65;4.28;;;-0.70;99.90;;;;;;5129139;27;20075;-80
2022/11/19 03:30:01;;;;;;;5.90;4.10;;;-0.80;99.90;;;;;;5110859;27;20134;-80
2022/11/19 03:32:49;;;;;;;8.40;4.03;;;-0.80;99.90;;;;;;5128282;27;20046;-80
2022/11/19 03:35:19;;;;;;;5.38;3.67;;;-0.80;99.90;;;;;;5098872;27;20142;-80
2022/11/19 03:37:49;;;;;;;6.75;4.47;;;-0.90;99.90;;;;;;5110608;27;20103;-80
2022/11/19 03:40:18;;;;;;;7.35;4.28;;;-0.80;99.90;;;;;;5128926;27;20121;-79
2022/11/19 03:42:47;;;;;;;6.50;4.40;;;-0.90;99.90;;;;;;5110353;27;20074;-80
2022/11/19 03:45:17;;;;;;;6.72;3.75;;;-0.90;99.90;;;;;;5128693;27;20443;-80
2022/11/19 03:47:46;;;;;;;7.35;4.15;;;-0.90;99.90;;;;;;5128559;27;20076;-80
2022/11/19 03:50:27;;;;;;;6.88;4.50;;;-0.90;99.90;;;;;;5110675;27;20042;-80
2022/11/19 03:52:54;;;;;;;4.88;4.03;;;-1.00;99.90;;;;;;5112041;27;20078;-80
2022/11/19 03:55:24;;;;;;;6.50;4.05;;;-1.00;99.90;;;;;;5127384;27;20048;-80
2022/11/19 03:57:50;;;;;;;6.35;4.35;;;-1.00;99.90;;;;;;5111107;27;20560;-80
2022/11/19 04:00:16;;;;;;;5.90;3.78;;;-1.00;99.90;;;;;;5127949;27;20058;-80
2022/11/19 04:02:42;;;;;;;6.55;4.00;;;-0.80;99.90;;;;;;5093556;27;20677;-80
2022/11/19 04:05:08;;;;;;;6.72;4.13;;;-1.10;99.90;;;;;;5128131;27;20572;-80
2022/11/19 04:07:34;;;;;;;6.10;4.18;;;-1.10;99.90;;;;;;5093539;27;20103;-80
2022/11/19 04:09:59;;;;;;;8.88;4.70;;;-1.10;99.90;;;;;;5094616;27;20094;-80
2022/11/19 04:12:25;;;;;;;6.80;4.30;;;-1.20;99.90;;;;;;5127052;27;20085;-80
2022/11/19 04:14:51;;;;;;;6.20;3.88;;;-1.20;99.90;;;;;;5094235;27;20038;-80
2022/11/19 04:17:18;;;;;;;7.90;4.70;;;-1.20;99.90;;;;;;5110307;27;20043;-80
2022/11/19 04:19:45;;;;;;;10.80;4.80;;;-0.20;99.90;;;;;;5127469;27;20035;-80
2022/11/19 04:22:11;;;;;;;7.82;4.40;;;-1.20;99.90;;;;;;5111649;27;20046;-81
2022/11/19 04:24:36;;;;;;;7.55;4.35;;;-1.20;99.90;;;;;;5110084;27;20401;-80
2022/11/19 04:27:02;;;;;;;5.88;3.83;;;-1.30;99.90;;;;;;5111025;27;20055;-80
2022/11/19 04:29:28;;;;;;;6.65;4.43;;;-1.30;99.90;;;;;;5127178;27;20095;-80
2022/11/19 04:31:53;;;;;;;6.88;4.07;;;-1.30;99.90;;;;;;5111172;27;20129;-80
2022/11/19 04:34:19;;;;;;;8.25;4.47;;;-1.30;99.90;;;;;;5127402;27;20613;-80
2022/11/19 04:36:45;;;;;;;8.00;4.75;;;-1.30;99.90;;;;;;5110311;27;20076;-81
2022/11/19 04:39:11;;;;;;;7.30;4.68;;;-1.30;99.90;;;;;;5111055;27;20049;-80
2022/11/19 04:41:38;;;;;;;6.88;4.57;;;-1.30;99.90;;;;;;5126818;27;20444;-80
2022/11/19 04:44:04;;;;;;;4.72;3.75;;;-1.30;99.90;;;;;;5128507;27;20443;-81
2022/11/19 04:46:30;;;;;;;8.32;4.13;;;-1.30;99.90;;;;;;5092741;27;20045;-81
2022/11/19 04:48:56;;;;;;;6.00;4.20;;;-1.30;99.90;;;;;;5110860;27;20092;-81
2022/11/19 04:51:22;;;;;;;5.57;4.03;;;-1.30;99.90;;;;;;5093038;27;20138;-81
2022/11/19 04:53:47;;;;;;;6.78;4.15;;;-1.30;99.90;;;;;;5110413;27;20117;-81
2022/11/19 04:56:13;;;;;;;8.90;5.30;;;-1.30;99.90;;;;;;5110822;27;20085;-81
2022/11/19 04:58:39;;;;;;;6.65;3.90;;;-1.30;99.90;;;;;;5127781;27;20068;-82
2022/11/19 05:01:05;;;;;;;8.05;4.60;;;-1.30;99.90;;;;;;5115163;27;20045;-81
2022/11/19 05:03:31;;;;;;;7.47;4.43;;;-1.30;99.90;;;;;;5130293;27;20104;-81
2022/11/19 05:05:56;;;;;;;6.68;4.50;;;-1.30;99.90;;;;;;5115397;27;20454;-81
2022/11/19 05:08:22;;;;;;;5.65;3.85;;;-1.30;99.90;;;;;;5130465;27;20444;-82
2022/11/19 05:10:48;;;;;;;7.03;4.38;;;-1.30;99.90;;;;;;5131329;27;20046;-81
2022/11/19 05:13:14;;;;;;;5.82;4.07;;;-1.40;99.90;;;;;;5114132;27;20038;-81
2022/11/19 05:15:39;;;;;;;6.30;3.95;;;-1.40;99.90;;;;;;5113354;27;20092;-81
2022/11/19 05:18:05;;;;;;;7.35;4.75;;;-0.50;99.90;;;;;;5132082;27;20038;-82
2022/11/19 05:20:31;;;;;;;6.32;3.95;;;-0.20;99.90;;;;;;5113989;27;20077;-81
2022/11/19 05:22:57;;;;;;;5.90;4.20;;;-0.20;99.90;;;;;;5115237;27;20137;-81
2022/11/19 05:25:22;;;;;;;8.07;4.38;;;-1.40;99.90;;;;;;5130361;27;20053;-81
2022/11/19 05:27:48;;;;;;;7.32;4.70;;;-0.80;99.90;;;;;;5130976;27;20536;-82
2022/11/19 05:30:15;;;;;;;7.38;4.15;;;-1.40;99.90;;;;;;5113296;27;20188;-81
2022/11/19 05:32:40;;;;;;;9.27;4.85;;;-1.40;99.90;;;;;;5130175;27;20053;-80
2022/11/19 05:35:07;;;;;;;6.88;4.15;;;-1.40;99.90;;;;;;5131258;27;20050;-81
2022/11/19 05:37:33;;;;;;;7.40;4.60;;;-1.40;99.90;;;;;;5113040;27;20386;-81
2022/11/19 05:39:58;;;;;;;8.02;4.50;;;-1.40;99.90;;;;;;5131494;27;20042;-81
2022/11/19 05:42:24;;;;;;;7.97;4.13;;;-1.50;99.90;;;;;;5112138;27;20129;-81
2022/11/19 05:44:50;;;;;;;7.97;4.47;;;-1.40;99.90;;;;;;5149587;27;20050;-82
2022/11/19 05:47:16;;;;;;;6.55;4.03;;;-1.00;99.90;;;;;;5148757;27;20031;-82
2022/11/19 05:49:41;;;;;;;6.65;4.35;;;-1.50;99.90;;;;;;5130428;27;20157;-81
2022/11/19 05:52:09;;;;;;;8.80;5.60;;;-1.50;99.90;;;;;;5149167;27;20043;-81
2022/11/19 05:54:34;;;;;;;6.10;3.85;;;-1.50;99.90;;;;;;5148507;27;20039;-81
2022/11/19 05:57:00;;;;;;;7.95;5.25;;;-1.10;99.90;;;;;;5113963;27;20393;-82
2022/11/19 05:59:26;;;;;;;7.78;4.53;;;-1.50;99.90;;;;;;5148183;27;20050;-82
2022/11/19 06:01:51;;;;;;;6.00;4.30;;;-1.50;99.90;;;;;;5149000;27;20047;-82
2022/11/19 06:04:17;;;;;;;7.63;5.05;;;-2.00;99.90;;;;;;5148154;27;20039;-82
2022/11/19 06:06:43;;;;;;;6.60;4.38;;;-1.50;99.90;;;;;;5096024;27;20047;-81
2022/11/19 06:09:08;;;;;;;6.93;4.40;;;-1.50;99.90;;;;;;5113372;27;20039;-81
2022/11/19 06:11:46;;;;;;;7.65;4.60;;;-1.50;99.90;;;;;;5127895;27;20494;-82
2022/11/19 06:14:13;;;;;;;8.50;4.47;;;-0.80;99.90;;;;;;5131261;27;20433;-82
2022/11/19 06:16:38;;;;;;;6.95;4.57;;;-1.50;99.90;;;;;;5095522;27;20367;-83
2022/11/19 06:19:04;;;;;;;7.35;4.32;;;-1.50;99.90;;;;;;5113598;27;20045;-82
2022/11/19 06:21:30;;;;;;;8.40;5.28;;;-1.50;99.90;;;;;;5129868;27;20081;-83
2022/11/19 06:23:55;;;;;;;6.60;4.18;;;-1.50;99.90;;;;;;5129753;27;20434;-83
2022/11/19 06:26:26;;;;;;;6.38;3.97;;;-1.60;99.90;;;;;;5130490;27;20171;-83
2022/11/19 06:28:52;;;;;;;6.70;4.70;;;-1.60;99.90;;;;;;5128871;27;20050;-83
2022/11/19 06:31:18;;;;;;;7.93;5.10;;;-0.60;99.90;;;;;;5113556;27;20046;-83
2022/11/19 06:33:44;;;;;;;6.40;4.47;;;-1.60;99.90;;;;;;5128298;27;20035;-83
2022/11/19 06:36:10;;;;;;;8.50;4.72;;;-1.60;99.90;;;;;;5112820;27;20039;-83
2022/11/19 06:38:35;;;;;;;8.07;4.95;;;-1.60;99.90;;;;;;5112303;27;20047;-83
2022/11/19 06:41:01;;;;;;;5.88;3.90;;;-1.60;99.90;;;;;;5129080;27;20394;-83
2022/11/19 06:43:27;;;;;;;6.55;4.28;;;-1.60;99.90;;;;;;5095637;27;20089;-83
2022/11/19 06:45:54;;;;;;;7.80;4.80;;;-1.70;99.90;;;;;;5128406;27;20049;-82
2022/11/19 06:48:20;;;;;;;7.10;4.07;;;-1.70;99.90;;;;;;5129973;27;20082;-82
2022/11/19 06:50:46;;;;;;;6.35;4.40;;;-1.70;99.90;;;;;;5111126;27;20054;-83
2022/11/19 06:53:12;;;;;;;7.25;4.18;;;-1.70;99.90;;;;;;5113070;27;20043;-82
2022/11/19 06:55:37;;;;;;;9.13;5.10;;;-1.70;99.90;;;;;;5128400;27;20490;-82
2022/11/19 06:58:04;;;;;;;7.65;4.38;;;-1.70;99.90;;;;;;5147986;27;20074;-82
2022/11/19 07:00:31;;;;;;;6.53;4.10;;;-1.70;99.90;;;;;;5147925;27;20067;-81
2022/11/19 07:02:56;;;;;;;8.10;4.72;;;-0.40;99.90;;;;;;5147178;27;20074;-82
2022/11/19 07:05:22;;;;;;;8.60;5.32;;;-1.70;99.90;;;;;;5112704;27;20074;-82
2022/11/19 07:07:48;;;;;;;6.95;4.07;;;-1.70;99.90;;;;;;5127537;27;20062;-82
2022/11/19 07:10:14;;;;;;;6.45;4.20;;;-1.70;99.90;;;;;;5148342;27;20034;-82
2022/11/19 07:12:39;;;;;;;10.40;4.88;;;-1.70;99.90;;;;;;5128145;27;20312;-82
2022/11/19 07:15:05;;;;;;;7.85;4.80;;;-1.70;99.90;;;;;;5147769;27;20088;-81
2022/11/19 07:17:31;;;;;;;7.15;4.28;;;-1.70;99.90;;;;;;5147713;27;20168;-79
2022/11/19 07:19:57;;;;;;;5.85;4.20;;;-1.60;99.90;;;;;;5146596;27;20050;-80
2022/11/19 07:22:23;;;;;;;5.93;4.07;;;-1.70;99.90;;;;;;5147458;27;20057;-81
2022/11/19 07:24:48;;;;;;;7.38;4.30;;;-1.70;99.90;;;;;;5127794;27;20045;-81
2022/11/19 07:27:15;;;;;;;9.07;4.63;;;-1.70;99.90;;;;;;5128856;27;20047;-82
2022/11/19 07:29:41;;;;;;;7.07;4.60;;;-1.70;99.90;;;;;;5146548;27;20053;-81
2022/11/19 07:32:07;;;;;;;9.50;4.78;;;-1.70;99.90;;;;;;5147292;27;20055;-82
2022/11/19 07:34:33;;;;;;;6.60;4.55;;;-1.70;99.90;;;;;;5128655;27;20042;-82
2022/11/19 07:36:58;;;;;;;6.90;4.70;;;-1.70;99.90;;;;;;5111066;27;20043;-83
2022/11/19 07:39:24;;;;;;;6.93;4.90;;;-1.70;99.90;;;;;;5111689;27;20117;-82
2022/11/19 07:44:37;;;;;;;7.72;4.75;;;-1.60;99.90;;;;;;5114393;27;20053;-81
2022/11/19 07:47:05;;;;;;;8.48;5.03;;;-1.70;99.90;;;;;;5146642;27;20034;-81
2022/11/19 07:49:30;;;;;;;7.18;4.28;;;-0.60;99.90;;;;;;5147031;27;20074;-80
2022/11/19 07:51:56;;;;;;;7.43;4.78;;;-1.60;99.90;;;;;;5128635;27;20081;-82
2022/11/19 07:54:21;;;;;;;6.50;4.00;;;-1.60;99.90;;;;;;5127965;27;20435;-82
2022/11/19 07:56:47;;;;;;;6.70;4.55;;;-1.60;99.90;;;;;;5147548;27;20581;-82
2022/11/19 07:59:13;;;;;;;8.20;4.97;;;-1.90;99.90;;;;;;5127294;27;20553;-83
2022/11/19 08:01:38;;;;;;;7.57;4.72;;;-1.50;99.90;;;;;;5128579;27;20038;-82
2022/11/19 08:04:04;;;;;;;6.43;4.50;;;-1.40;99.90;;;;;;5146093;27;20034;-83
2022/11/19 08:06:33;;;;;;;6.82;4.32;;;-1.40;99.90;;;;;;5146657;27;20046;-83
2022/11/19 08:08:59;;;;;;;8.02;4.90;;;-1.40;99.90;;;;;;5146398;27;20047;-82
2022/11/19 08:11:25;;;;;;;6.68;4.60;;;-1.40;99.90;;;;;;5127482;27;20047;-82
2022/11/19 08:13:51;;;;;;;7.18;4.68;;;-1.30;99.90;;;;;;5128108;27;20039;-82
2022/11/19 08:19:02;;;;;;;6.13;4.35;;;-1.30;99.90;;;;;;5099654;27;20046;-81
2022/11/19 08:21:28;;;;;;;7.70;4.53;;;-1.20;99.90;;;;;;5127031;27;20050;-82
2022/11/19 08:23:54;;;;;;;8.23;4.72;;;-1.10;99.90;;;;;;5093360;27;20083;-82
2022/11/19 08:26:20;;;;;;;8.13;4.97;;;-1.10;99.90;;;;;;5110662;27;20070;-81
2022/11/19 08:28:45;;;;;;;7.22;4.68;;;-1.10;99.90;;;;;;5145231;27;20057;-81
2022/11/19 08:31:11;;;;;;;5.43;4.15;;;-0.70;99.90;;;;;;5111264;27;20043;-81
2022/11/19 08:33:37;;;;;;;7.30;4.45;;;0.30;99.90;;;;;;5093421;27;20053;-81
2022/11/19 08:36:03;;;;;;;5.60;4.07;;;-0.80;99.90;;;;;;5115258;27;20035;-82
2022/11/19 08:38:29;;;;;;;8.43;5.05;;;-0.80;99.90;;;;;;5131406;27;20132;-81
2022/11/19 08:42:58;;;;;;;6.40;4.32;;;-0.70;99.90;;;;;;5132705;27;20043;-82
2022/11/19 08:43:41;;;;;;;6.28;4.53;;;-0.60;99.90;;;;;;5150512;27;20493;-83
2022/11/19 08:46:07;;;;;;;6.15;3.92;;;-0.50;99.90;;;;;;5149651;27;20476;-82
2022/11/19 08:48:33;;;;;;;7.97;4.97;;;-0.40;99.90;;;;;;5132004;27;20067;-81
2022/11/19 08:51:02;;;;;;;6.60;4.43;;;0.80;99.90;;;;;;5149544;27;20042;-82
2022/11/19 08:53:28;;;;;;;6.72;4.50;;;-0.30;99.90;;;;;;5150559;27;20038;-82
2022/11/19 08:55:53;;;;;;;7.85;4.60;;;1.10;99.90;;;;;;5149712;27;20047;-82
2022/11/19 08:58:19;;;;;;;8.40;4.82;;;-0.10;99.90;;;;;;5113738;27;20045;-81
2022/11/19 09:00:45;;;;;;;8.90;5.07;;;1.00;99.90;;;;;;5114864;27;20065;-81
2022/11/19 09:03:10;;;;;;;7.93;5.07;;;0.20;99.90;;;;;;5130504;27;20043;-80
2022/11/19 09:05:36;;;;;;;8.27;4.35;;;0.30;99.90;;;;;;5131829;27;20095;-80
2022/11/19 09:08:02;;;;;;;6.45;4.53;;;1.00;99.90;;;;;;5113233;27;20043;-80
2022/11/19 09:10:27;;;;;;;7.70;4.57;;;0.40;99.90;;;;;;5131689;27;20070;-81
2022/11/19 09:12:53;;;;;;;6.50;4.47;;;0.40;99.90;;;;;;5130970;27;20084;-80
2022/11/19 09:15:19;;;;;;;6.72;4.40;;;0.50;99.90;;;;;;5130496;27;20447;-81
2022/11/19 09:17:45;;;;;;;8.20;5.55;;;0.50;99.90;;;;;;5131010;27;20517;-80
2022/11/19 09:20:11;;;;;;;7.65;4.97;;;0.60;99.90;;;;;;5113508;27;20176;-81
2022/11/19 09:22:37;;;;;;;7.45;4.72;;;0.60;99.90;;;;;;5131514;27;20059;-81
2022/11/19 09:25:03;;;;;;;7.28;4.80;;;0.70;99.90;;;;;;5130262;27;20366;-79
2022/11/19 09:27:29;;;;;;;6.82;4.55;;;0.70;99.90;;;;;;5114027;27;20490;-79
2022/11/19 09:29:55;;;;;;;6.20;4.50;;;0.80;99.90;;;;;;5129800;27;20442;-78
2022/11/19 09:32:21;;;;;;;8.93;5.07;;;0.90;99.90;;;;;;5113379;27;20042;-80
2022/11/19 09:34:47;;;;;;;8.02;4.95;;;0.90;99.90;;;;;;5130407;27;20103;-80
2022/11/19 09:37:12;;;;;;;7.63;5.10;;;1.00;99.90;;;;;;5130300;27;20183;-80
2022/11/19 09:39:38;;;;;;;7.25;4.93;;;1.00;99.90;;;;;;5113763;27;20061;-80
2022/11/19 09:42:06;;;;;;;7.88;4.95;;;2.30;99.90;;;;;;5112333;27;20042;-80
2022/11/19 09:44:47;;;;;;;10.80;5.38;;;1.10;99.90;;;;;;5113829;27;20508;-80
2022/11/19 09:47:43;;;;;;;6.85;4.65;;;1.10;99.90;;;;;;5129692;27;20035;-80
2022/11/19 09:51:04;;;;;;;6.95;4.35;;;1.20;99.90;;;;;;5130097;27;20095;-81
2022/11/19 09:53:41;;;;;;;7.60;4.80;;;1.30;99.90;;;;;;5085287;27;20056;-80
2022/11/19 09:56:14;;;;;;;7.05;5.00;;;1.40;99.90;;;;;;5113519;27;20103;-81
2022/11/19 09:58:44;;;;;;;6.60;4.20;;;1.60;99.90;;;;;;5129557;27;20078;-80
2022/11/19 10:01:16;;;;;;;9.30;4.60;;;1.60;99.90;;;;;;5130341;27;20050;-79
2022/11/19 10:03:47;;;;;;;6.88;4.10;;;1.60;99.90;;;;;;5129054;27;20039;-79
2022/11/19 10:06:28;;;;;;;6.20;4.13;;;1.80;99.90;;;;;;5113551;27;20043;-79
2022/11/19 10:09:06;;;;;;;5.82;3.88;;;1.80;99.90;;;;;;5129448;27;20078;-80
2022/11/19 10:11:39;;;;;;;6.45;4.18;;;1.90;99.90;;;;;;5112167;27;20163;-80
2022/11/19 10:14:23;;;;;;;;;;;2.00;99.90;;;;;;5131086;27;20103;-80
2022/11/19 10:17:12;;;;;;;6.57;3.72;;;2.10;99.90;;;;;;5128780;27;19918;-80
2022/11/19 10:20:06;;;;;;;6.55;3.88;;;2.10;99.90;;;;;;5116545;27;20074;-80
2022/11/19 10:22:39;;;;;;;5.28;3.40;;;2.20;99.90;;;;;;5130174;27;20130;-78
2022/11/19 10:25:24;;;;;;;6.63;3.95;;;2.30;99.90;;;;;;5128622;27;20039;-80
2022/11/19 10:27:54;;;;;;;6.03;4.25;;;2.40;99.90;;;;;;5130130;27;20135;-80
2022/11/19 10:30:23;;;;;;;5.45;3.67;;;2.40;99.90;;;;;;5129099;27;20047;-79
2022/11/19 10:33:03;;;;;;;5.57;3.70;;;2.50;99.90;;;;;;5129101;27;20085;-80
2022/11/19 10:35:37;;;;;;;4.47;3.42;;;2.60;99.90;;;;;;5112976;27;20076;-79
2022/11/19 10:38:16;;;;;;;7.57;4.10;;;2.60;99.90;;;;;;5111530;27;20053;-82
2022/11/19 10:40:47;;;;;;;7.10;4.13;;;2.70;99.90;;;;;;5112485;27;20050;-83
2022/11/19 10:43:30;;;;;;;4.80;3.55;;;2.70;99.90;;;;;;5128716;27;20046;-84
2022/11/19 10:45:59;;;;;;;5.65;3.67;;;2.80;99.90;;;;;;5111396;27;20050;-83
2022/11/19 10:48:43;;;;;;;4.07;3.25;;;2.80;99.90;;;;;;5112765;27;20046;-84
2022/11/19 10:51:22;;;;;;;6.18;3.67;;;2.90;99.90;;;;;;5093816;27;20034;-84
2022/11/19 10:53:49;;;;;;;6.05;4.20;;;2.90;99.90;;;;;;5129014;27;20042;-83
2022/11/19 10:56:20;;;;;;;6.85;4.03;;;3.00;99.90;;;;;;5129079;27;20039;-83
2022/11/19 10:59:06;;;;;;;5.97;3.97;;;3.00;99.90;;;;;;5110989;27;20094;-83
2022/11/19 11:01:35;;;;;;;5.68;3.85;;;3.10;99.90;;;;;;5112679;27;20417;-83
2022/11/19 11:04:10;;;;;;;5.25;3.58;;;3.10;99.90;;;;;;5128570;27;20035;-83
2022/11/19 11:06:57;;;;;;;5.78;3.08;;;3.30;99.90;;;;;;5111782;27;20049;-83
2022/11/19 11:09:38;;;;;;;4.22;3.08;;;3.30;99.90;;;;;;5111839;27;20042;-84
2022/11/19 11:15:21;;;;;;;6.20;3.63;;;3.40;99.90;;;;;;5129000;27;20049;-83
2022/11/19 11:18:09;;;;;;;6.88;3.42;;;3.50;99.90;;;;;;5112062;27;20069;-84
2022/11/19 11:20:37;;;;;;;5.25;3.40;;;3.50;99.90;;;;;;5127825;27;20042;-83
2022/11/19 11:23:10;;;;;;;5.65;3.22;;;3.50;99.90;;;;;;5111796;27;20050;-84
2022/11/19 11:25:37;;;;;;;4.85;3.17;;;3.60;99.90;;;;;;5127853;27;20053;-84
2022/11/19 11:28:14;;;;;;;5.18;3.60;;;3.70;99.90;;;;;;5128290;27;20054;-84
2022/11/19 11:30:58;;;;;;;4.85;3.63;;;3.70;99.90;;;;;;5111984;27;20474;-84
2022/11/19 11:33:39;;;;;;;4.72;3.03;;;3.80;99.90;;;;;;5128194;27;20042;-84
2022/11/19 11:36:12;;;;;;;4.15;2.90;;;3.80;99.90;;;;;;5112509;27;20097;-83
2022/11/19 11:38:49;;;;;;;5.30;3.05;;;3.90;99.90;;;;;;5110629;27;20493;-84
2022/11/19 11:41:20;;;;;;;5.05;3.22;;;4.80;99.90;;;;;;5128097;27;20409;-83
2022/11/19 11:44:04;;;;;;;4.95;2.88;;;3.90;99.90;;;;;;5111704;27;20503;-83
2022/11/19 11:46:42;;;;;;;4.65;2.90;;;3.90;99.90;;;;;;5110342;27;20050;-83
2022/11/19 11:49:36;;;;;;;4.22;2.53;;;3.90;99.90;;;;;;5111623;27;20049;-83
2022/11/19 11:52:08;;;;;;;5.15;2.42;;;3.90;99.90;;;;;;5110795;27;20042;-83
2022/11/19 11:54:35;;;;;;;4.85;3.00;;;3.90;99.90;;;;;;5110241;27;20049;-83
2022/11/19 11:57:26;;;;;;;5.10;3.13;;;3.90;99.90;;;;;;5128870;27;20500;-83
2022/11/19 11:59:52;;;;;;;4.05;2.72;;;3.90;99.90;;;;;;5110328;27;20046;-83
2022/11/19 12:02:25;;;;;;;5.22;2.83;;;3.90;99.90;;;;;;5127865;27;20511;-83
2022/11/19 12:04:53;;;;;;;6.30;3.53;;;4.00;99.90;;;;;;5128030;27;20043;-83
2022/11/19 12:07:22;;;;;;;4.95;2.90;;;4.10;99.90;;;;;;5110418;27;20074;-83
2022/11/19 12:10:06;;;;;;;6.80;2.65;;;4.10;99.90;;;;;;5128118;27;20042;-83
2022/11/19 12:12:58;;;;;;;4.70;3.00;;;4.10;99.90;;;;;;5110360;27;20421;-83
2022/11/19 12:15:47;;;;;;;3.08;2.47;;;4.20;99.90;;;;;;5088475;27;20100;-83
2022/11/19 12:18:31;;;;;;;4.90;3.03;;;4.30;99.90;;;;;;5128168;27;20083;-83
2022/11/19 12:21:06;;;;;;;4.65;3.00;;;4.30;99.90;;;;;;5109613;27;20052;-83
2022/11/19 12:23:37;;;;;;;4.00;3.20;;;4.30;99.90;;;;;;5128049;27;20082;-83
2022/11/19 12:26:11;;;;;;;4.53;2.88;;;4.30;99.90;;;;;;5109908;27;20129;-83
2022/11/19 12:28:43;;;;;;;4.32;2.45;;;4.40;99.90;;;;;;5106615;28;20059;-83
2022/11/19 12:31:24;;;;;;;4.03;2.58;;;4.40;99.90;;;;;;5124726;28;20050;-83
2022/11/19 12:34:08;;;;;;;5.40;2.78;;;4.50;99.90;;;;;;5106468;28;20043;-83
2022/11/19 12:37:05;;;;;;;3.88;3.10;;;4.40;99.90;;;;;;5124092;28;20055;-83
2022/11/19 12:39:39;;;;;;;3.42;2.33;;;4.40;99.90;;;;;;5082928;28;20055;-83
2022/11/19 12:42:24;;;;;;;4.57;2.78;;;4.40;99.90;;;;;;5123038;28;20069;-83
2022/11/19 12:45:38;;;;;;;5.28;2.85;;;4.40;99.90;;;;;;5124023;28;20043;-83
2022/11/19 12:48:19;;;;;;;4.20;2.88;;;4.40;99.90;;;;;;5102367;28;20047;-83
2022/11/19 12:50:50;;;;;;;5.90;2.60;;;4.40;99.90;;;;;;5106752;28;20104;-83
2022/11/19 12:53:31;;;;;;;4.18;3.15;;;4.40;99.90;;;;;;5124624;28;20604;-83
2022/11/19 12:56:31;;;;;;;4.63;3.25;;;4.40;99.90;;;;;;5106384;28;20092;-83
2022/11/19 12:59:20;;;;;;;7.20;3.03;;;4.40;99.90;;;;;;5106358;28;20046;-83
2022/11/19 13:01:51;;;;;;;6.15;3.22;;;4.40;99.90;;;;;;5106826;28;20130;-78
2022/11/19 13:04:31;;;;;;;5.28;3.63;;;4.40;99.90;;;;;;5123500;28;20193;-82
2022/11/19 13:07:02;;;;;;;5.53;2.70;;;4.50;99.90;;;;;;5124048;28;20439;-81
2022/11/19 13:09:49;;;;;;;4.07;2.45;;;4.50;99.90;;;;;;5124530;28;20086;-81
2022/11/19 13:12:30;;;;;;;5.85;3.25;;;4.60;99.90;;;;;;5105820;28;20039;-82
2022/11/19 13:15:04;;;;;;;6.45;3.63;;;4.90;99.90;;;;;;5124197;28;20089;-82
2022/11/19 13:17:40;;;;;;;4.75;2.78;;;4.60;99.90;;;;;;5106258;28;20138;-81
2022/11/19 13:20:41;;;;;;;4.55;3.13;;;4.60;99.90;;;;;;5124518;27;20122;-80
2022/11/19 13:23:15;;;;;;;4.43;2.92;;;4.60;99.90;;;;;;5128392;27;20394;-81
2022/11/19 13:26:06;;;;;;;4.13;2.88;;;4.60;99.90;;;;;;5126950;27;20042;-81
2022/11/19 13:28:36;;;;;;;6.70;3.28;;;4.60;99.90;;;;;;5108721;27;20504;-81
2022/11/19 13:31:16;;;;;;;7.53;3.38;;;4.60;99.90;;;;;;5127698;27;20055;-81